Time;durP1;ratioP1;P1;durP2;ratioP2;P2;SDS_P1;SDS_P2;PMS_P1;PMS_P2;Temp;Humidity;BMP_temperature;BMP_pressure;BME280_temperature;BME280_humidity;BME280_pressure;Samples;Min_cycle;Max_cycle;Signal;HPM_P1;HPM_P2
2023/07/16 00:01:37;;;;;;;3.63;2.80;;;;;;;19.84;100.00;100086.03;4910603;29;20218;-70
2023/07/16 00:04:03;;;;;;;3.42;2.70;;;;;;;19.76;100.00;100069.25;4911644;29;20526;-72
2023/07/16 00:06:30;;;;;;;4.78;2.92;;;;;;;19.75;100.00;100097.06;4898509;29;20199;-70
2023/07/16 00:08:57;;;;;;;5.38;2.63;;;;;;;19.74;100.00;100127.53;4908069;29;20231;-70
2023/07/16 00:11:23;;;;;;;6.30;3.00;;;;;;;19.75;100.00;100123.94;4899758;29;20603;-68
2023/07/16 00:13:50;;;;;;;8.10;3.13;;;;;;;19.68;100.00;100114.28;4910258;29;20214;-70
2023/07/16 00:16:16;;;;;;;4.05;2.60;;;;;;;19.62;100.00;100125.22;4909910;29;20250;-71
2023/07/16 00:18:44;;;;;;;4.07;2.53;;;;;;;19.61;100.00;100129.69;4912124;29;20310;-69
2023/07/16 00:21:11;;;;;;;5.40;2.53;;;;;;;19.55;100.00;100132.53;4906587;29;20223;-69
2023/07/16 00:23:37;;;;;;;4.68;2.47;;;;;;;19.42;100.00;100128.38;4910684;29;20795;-69
2023/07/16 00:26:03;;;;;;;3.40;2.20;;;;;;;19.44;100.00;100136.41;4909197;29;20210;-69
2023/07/16 00:28:30;;;;;;;4.15;2.58;;;;;;;19.35;100.00;100145.59;4922555;29;20242;-69
2023/07/16 00:30:56;;;;;;;4.63;2.40;;;;;;;19.32;100.00;100137.63;4924681;29;20191;-72
2023/07/16 00:33:23;;;;;;;5.03;3.03;;;;;;;19.29;100.00;100140.38;4931289;29;20282;-72
2023/07/16 00:35:50;;;;;;;3.30;2.30;;;;;;;19.23;100.00;100156.66;4931851;29;20281;-69
2023/07/16 00:38:18;;;;;;;5.33;2.63;;;;;;;19.19;100.00;100149.56;4936755;29;20246;-68
2023/07/16 00:40:45;;;;;;;5.90;2.35;;;;;;;19.14;100.00;100163.13;4942021;29;20220;-68
2023/07/16 00:43:11;;;;;;;7.27;2.67;;;;;;;19.05;100.00;100166.03;4925596;29;20199;-68
2023/07/16 00:45:40;;;;;;;7.90;2.80;;;;;;;19.02;100.00;100169.69;4928701;29;20659;-69
2023/07/16 00:48:07;;;;;;;7.77;2.80;;;;;;;18.98;100.00;100156.38;4930729;29;20598;-68
2023/07/16 00:50:38;;;;;;;5.27;2.70;;;;;;;18.96;100.00;100153.75;4926538;29;20203;-72
2023/07/16 00:53:06;;;;;;;5.30;2.77;;;;;;;18.97;100.00;100123.28;4929137;29;20703;-69
2023/07/16 00:55:34;;;;;;;7.40;3.30;;;;;;;18.93;100.00;100131.47;4924396;29;20206;-69
2023/07/16 00:58:07;;;;;;;7.13;2.40;;;;;;;18.93;100.00;100144.88;4928254;29;20215;-69
2023/07/16 01:00:35;;;;;;;7.03;2.83;;;;;;;18.91;100.00;100142.25;4931834;29;20219;-70
2023/07/16 01:03:03;;;;;;;4.00;2.57;;;;;;;18.85;100.00;100133.47;4930138;29;20222;-70
2023/07/16 01:06:00;;;;;;;4.17;2.73;;;;;;;18.85;100.00;100125.41;4935850;29;20205;-71
2023/07/16 01:08:32;;;;;;;5.43;2.60;;;;;;;18.79;100.00;100124.63;4923807;29;20227;-71
2023/07/16 01:11:00;;;;;;;7.50;2.70;;;;;;;18.77;100.00;100145.22;4925325;29;20281;-68
2023/07/16 01:13:27;;;;;;;3.43;2.53;;;;;;;18.85;100.00;100155.81;4934366;29;20676;-68
2023/07/16 01:15:54;;;;;;;4.37;2.50;;;;;;;18.78;100.00;100168.47;4929132;29;20767;-70
2023/07/16 01:18:20;;;;;;;3.00;2.20;;;;;;;18.77;100.00;100168.50;4941324;29;20234;-69
2023/07/16 01:20:47;;;;;;;4.03;2.40;;;;;;;18.73;100.00;100172.19;4939050;29;20219;-69
2023/07/16 01:23:45;;;;;;;4.77;2.20;;;;;;;18.71;100.00;100179.38;4927547;29;20466;-69
2023/07/16 01:26:12;;;;;;;6.60;2.40;;;;;;;18.62;100.00;100175.13;4934769;29;20691;-69
2023/07/16 01:29:16;;;;;;;4.83;2.47;;;;;;;18.46;100.00;100189.78;4919858;29;20237;-71
2023/07/16 01:31:44;;;;;;;4.50;2.40;;;;;;;18.30;100.00;100194.56;4907172;29;20204;-68
2023/07/16 01:34:12;;;;;;;5.70;2.50;;;;;;;18.14;100.00;100190.44;4920818;29;20723;-71
2023/07/16 01:36:39;;;;;;;2.70;2.13;;;;;;;17.98;100.00;100195.22;4916892;29;20219;-67
2023/07/16 01:39:06;;;;;;;5.67;2.47;;;;;;;17.88;100.00;100190.06;4922149;29;20376;-68
2023/07/16 01:41:32;;;;;;;7.93;2.33;;;;;;;17.75;100.00;100209.06;4919172;29;20246;-68
2023/07/16 01:43:59;;;;;;;5.17;2.70;;;;;;;17.54;100.00;100201.38;4916384;29;20207;-71
2023/07/16 01:46:25;;;;;;;7.53;2.57;;;;;;;17.41;100.00;100213.22;4916450;29;21804;-69
2023/07/16 01:48:52;;;;;;;3.67;2.30;;;;;;;17.31;100.00;100216.97;4922457;29;20219;-68
2023/07/16 01:51:20;;;;;;;4.47;2.20;;;;;;;17.24;100.00;100221.56;4923389;29;20286;-68
2023/07/16 01:53:46;;;;;;;3.73;2.00;;;;;;;17.22;100.00;100221.59;4919051;29;20286;-68
2023/07/16 01:56:12;;;;;;;3.53;2.10;;;;;;;17.21;100.00;100234.97;4916087;29;20208;-68
2023/07/16 01:58:39;;;;;;;6.07;2.30;;;;;;;17.21;100.00;100232.28;4914433;29;20725;-71
2023/07/16 02:01:06;;;;;;;5.47;2.90;;;;;;;17.19;100.00;100229.63;4915752;29;20222;-68
2023/07/16 02:03:32;;;;;;;3.53;2.70;;;;;;;17.15;100.00;100229.72;4923643;29;20203;-68
2023/07/16 02:05:59;;;;;;;3.97;2.60;;;;;;;17.04;100.00;100229.00;4922963;29;20199;-68
2023/07/16 02:08:25;;;;;;;6.83;2.33;;;;;;;17.07;100.00;100234.31;4916809;29;20231;-68
2023/07/16 02:10:52;;;;;;;5.00;2.33;;;;;;;16.97;100.00;100235.38;4919946;29;20199;-69
2023/07/16 02:13:18;;;;;;;3.40;2.20;;;;;;;17.07;100.00;100231.63;4914932;29;20234;-70
2023/07/16 02:15:44;;;;;;;4.23;2.03;;;;;;;17.06;100.00;100220.03;4918853;29;20685;-68
2023/07/16 02:18:11;;;;;;;4.67;2.20;;;;;;;17.10;100.00;100218.19;4922957;29;20270;-66
2023/07/16 02:20:38;;;;;;;4.60;3.00;;;;;;;17.03;100.00;100224.56;4916190;29;20223;-68
2023/07/16 02:23:04;;;;;;;4.30;2.37;;;;;;;16.91;100.00;100223.84;4916252;29;20213;-70
2023/07/16 02:25:32;;;;;;;5.77;2.40;;;;;;;16.79;100.00;100231.16;4909970;29;20422;-68
2023/07/16 02:27:58;;;;;;;6.23;2.17;;;;;;;16.81;100.00;100232.00;4929216;29;20231;-69
2023/07/16 02:30:25;;;;;;;6.97;2.63;;;;;;;16.73;100.00;100234.81;4917964;29;20196;-68
2023/07/16 02:32:51;;;;;;;5.33;3.67;;;;;;;16.65;100.00;100234.00;4920135;29;20203;-69
2023/07/16 02:35:18;;;;;;;5.83;3.10;;;;;;;16.71;100.00;100241.06;4913778;29;20203;-68
2023/07/16 02:37:44;;;;;;;5.07;2.50;;;;;;;16.63;100.00;100249.19;4913313;29;20220;-70
2023/07/16 02:40:11;;;;;;;8.43;3.03;;;;;;;16.62;100.00;100260.78;4926518;29;20225;-71
2023/07/16 02:42:40;;;;;;;7.03;3.47;;;;;;;16.58;100.00;100261.72;4917509;29;20204;-68
2023/07/16 02:45:07;;;;;;;6.87;2.67;;;;;;;16.47;100.00;100264.53;4918333;29;20686;-68
2023/07/16 02:47:33;;;;;;;5.20;2.90;;;;;;;16.45;100.00;100265.47;4916325;29;20772;-68
2023/07/16 02:50:00;;;;;;;9.93;3.23;;;;;;;16.45;100.00;100262.81;4906096;29;20207;-67
2023/07/16 02:52:26;;;;;;;6.13;3.27;;;;;;;16.43;100.00;100275.31;4914626;29;20211;-71
2023/07/16 02:54:53;;;;;;;8.87;3.70;;;;;;;16.42;100.00;100279.75;4928253;29;20205;-68
2023/07/16 02:57:21;;;;;;;7.23;3.00;;;;;;;16.34;100.00;100272.72;4904056;29;20231;-70
2023/07/16 02:59:47;;;;;;;9.40;3.17;;;;;;;16.27;100.00;100263.88;4921219;29;20199;-69
2023/07/16 03:02:14;;;;;;;7.00;3.40;;;;;;;16.25;100.00;100273.72;4917161;29;20200;-68
2023/07/16 03:04:41;;;;;;;5.03;2.90;;;;;;;16.09;100.00;100275.69;4919415;29;20724;-68
2023/07/16 03:07:07;;;;;;;7.57;3.27;;;;;;;15.99;100.00;100279.31;4926153;29;20245;-69
2023/07/16 03:09:34;;;;;;;8.73;3.80;;;;;;;15.96;100.00;100280.25;4922649;29;20203;-68
2023/07/16 03:12:00;;;;;;;7.33;3.67;;;;;;;15.95;100.00;100283.81;4920190;29;20195;-68
2023/07/16 03:14:27;;;;;;;8.73;3.97;;;;;;;15.89;100.00;100294.56;4897234;29;20231;-68
2023/07/16 03:16:53;;;;;;;11.60;3.90;;;;;;;15.83;100.00;100285.75;4913780;29;20227;-69
2023/07/16 03:19:20;;;;;;;8.70;4.07;;;;;;;15.78;100.00;100291.13;4925383;29;20203;-71
2023/07/16 03:21:48;;;;;;;8.03;3.60;;;;;;;15.69;100.00;100293.88;4916332;29;20302;-66
2023/07/16 03:24:15;;;;;;;7.87;3.40;;;;;;;15.66;100.00;100300.16;4918886;29;20199;-68
2023/07/16 03:26:41;;;;;;;5.10;3.87;;;;;;;15.64;100.00;100304.63;4918648;29;20210;-68
2023/07/16 03:29:07;;;;;;;8.93;4.10;;;;;;;15.61;100.00;100320.66;4921529;29;20588;-66
2023/07/16 03:31:34;;;;;;;9.40;4.50;;;;;;;15.62;100.00;100319.75;4927606;29;20199;-71
2023/07/16 03:34:00;;;;;;;7.93;3.53;;;;;;;15.62;100.00;100319.75;4918799;29;20204;-69
2023/07/16 03:36:27;;;;;;;11.37;4.10;;;;;;;15.68;100.00;100317.94;4924246;29;20282;-68
2023/07/16 03:38:53;;;;;;;11.57;4.53;;;;;;;15.69;100.00;100317.91;4918469;29;20218;-68
2023/07/16 03:41:19;;;;;;;7.23;3.87;;;;;;;15.65;100.00;100327.75;4923830;29;20227;-68
2023/07/16 03:43:46;;;;;;;8.90;4.07;;;;;;;15.69;100.00;100320.59;4926266;29;20202;-68
2023/07/16 03:46:12;;;;;;;8.53;4.10;;;;;;;15.69;100.00;100325.94;4930904;29;20195;-67
2023/07/16 03:48:39;;;;;;;7.73;3.93;;;;;;;15.71;100.00;100320.56;4913120;29;20222;-71
2023/07/16 03:51:05;;;;;;;6.83;3.77;;;;;;;15.66;100.00;100320.63;4924275;29;20669;-69
2023/07/16 03:53:32;;;;;;;13.43;4.00;;;;;;;15.65;100.00;100330.41;4910254;29;20195;-68
2023/07/16 03:55:58;;;;;;;7.33;3.77;;;;;;;15.63;100.00;100326.00;4930928;29;20202;-68
2023/07/16 03:58:24;;;;;;;10.13;3.97;;;;;;;15.68;100.00;100331.28;4921075;29;20219;-68
2023/07/16 04:00:52;;;;;;;6.93;3.43;;;;;;;15.67;100.00;100330.41;4922579;29;20219;-71
2023/07/16 04:03:18;;;;;;;8.50;4.43;;;;;;;15.72;100.00;100335.69;4919622;29;20259;-68
2023/07/16 04:05:45;;;;;;;9.07;3.90;;;;;;;15.74;100.00;100337.44;4927833;29;20249;-68
2023/07/16 04:08:11;;;;;;;7.07;4.13;;;;;;;15.72;100.00;100331.25;4922406;29;20222;-68
2023/07/16 04:10:38;;;;;;;6.17;3.57;;;;;;;15.71;100.00;100337.47;4931171;29;20199;-68
2023/07/16 04:13:04;;;;;;;8.20;3.50;;;;;;;15.77;100.00;100340.09;4924827;29;20204;-68
2023/07/16 04:15:30;;;;;;;7.90;3.67;;;;;;;15.73;100.00;100345.47;4919848;29;20229;-70
2023/07/16 04:17:57;;;;;;;5.63;3.83;;;;;;;15.79;100.00;100350.75;4916292;29;20250;-70
2023/07/16 04:20:24;;;;;;;11.80;3.80;;;;;;;15.74;100.00;100333.91;4930138;29;20250;-68
2023/07/16 04:22:50;;;;;;;7.40;3.73;;;;;;;15.83;100.00;100355.19;4926315;29;20203;-68
2023/07/16 04:25:18;;;;;;;6.50;4.53;;;;;;;15.91;100.00;100355.97;4922873;29;20226;-68
2023/07/16 04:27:45;;;;;;;11.40;4.20;;;;;;;16.01;100.00;100357.69;4927630;29;20305;-68
2023/07/16 04:30:11;;;;;;;8.03;3.67;;;;;;;16.08;100.00;100370.09;4929887;29;20289;-70
2023/07/16 04:32:37;;;;;;;6.30;3.50;;;;;;;16.02;100.00;100359.47;4930787;29;20229;-68
2023/07/16 04:35:04;;;;;;;9.23;3.97;;;;;;;16.16;100.00;100362.00;4930199;29;20224;-68
2023/07/16 04:37:31;;;;;;;8.97;4.00;;;;;;;16.15;100.00;100373.59;4932535;29;20230;-68
2023/07/16 04:39:57;;;;;;;8.17;3.63;;;;;;;16.18;100.00;100381.56;4934592;29;20195;-71
2023/07/16 04:42:24;;;;;;;7.07;3.37;;;;;;;16.21;100.00;100384.22;4932448;29;20225;-70
2023/07/16 04:44:50;;;;;;;6.43;3.70;;;;;;;16.26;100.00;100393.94;4928317;29;20383;-68
2023/07/16 04:47:16;;;;;;;7.87;4.30;;;;;;;16.26;100.00;100388.59;4928592;29;20314;-70
2023/07/16 04:49:43;;;;;;;7.93;3.20;;;;;;;16.43;100.00;100390.25;4932336;29;20210;-69
2023/07/16 04:52:09;;;;;;;8.40;3.70;;;;;;;16.39;100.00;100392.03;4932513;29;20196;-68
2023/07/16 04:54:39;;;;;;;5.40;3.40;;;;;;;16.47;100.00;100400.00;4932828;29;20207;-68
2023/07/16 04:57:06;;;;;;;6.70;3.40;;;;;;;16.59;100.00;100408.75;4927413;29;20247;-68
2023/07/16 04:59:33;;;;;;;7.70;3.47;;;;;;;16.79;100.00;100399.66;4933333;29;20199;-71
2023/07/16 05:01:59;;;;;;;7.27;3.97;;;;;;;16.88;100.00;100396.91;4929176;29;20630;-68
2023/07/16 05:04:26;;;;;;;5.00;3.37;;;;;;;16.95;100.00;100409.28;4933966;29;20214;-68
2023/07/16 05:06:52;;;;;;;6.47;3.33;;;;;;;16.94;100.00;100414.66;4929544;29;20241;-67
2023/07/16 05:09:20;;;;;;;6.33;3.23;;;;;;;17.01;100.00;100409.19;4933209;29;20282;-68
2023/07/16 05:11:46;;;;;;;6.80;3.20;;;;;;;17.16;100.00;100409.00;4932668;29;20195;-69
2023/07/16 05:14:13;;;;;;;7.27;3.40;;;;;;;17.15;100.00;100403.66;4931588;29;20237;-68
2023/07/16 05:16:39;;;;;;;9.30;3.80;;;;;;;17.30;100.00;100413.31;4932102;29;20203;-67
2023/07/16 05:19:06;;;;;;;9.33;4.03;;;;;;;17.27;100.00;100411.56;4927292;29;20200;-70
2023/07/16 05:21:32;;;;;;;6.10;3.37;;;;;;;17.37;100.00;100417.66;4929487;29;20223;-68
2023/07/16 05:23:58;;;;;;;8.57;3.30;;;;;;;17.38;100.00;100419.44;4926549;29;20203;-68
2023/07/16 05:26:25;;;;;;;7.03;3.07;;;;;;;17.44;100.00;100425.56;4923858;29;20214;-67
2023/07/16 05:28:51;;;;;;;7.93;3.83;;;;;;;17.57;100.00;100430.75;4930904;29;20226;-68
2023/07/16 05:31:17;;;;;;;6.90;3.00;;;;;;;17.68;100.00;100431.53;4933394;29;20203;-68
2023/07/16 05:33:44;;;;;;;6.47;3.37;;;;;;;17.75;100.00;100434.09;4927627;29;20274;-70
2023/07/16 05:36:10;;;;;;;7.10;3.23;;;;;;;17.81;100.00;100436.66;4922693;29;20212;-68
2023/07/16 05:38:37;;;;;;;7.13;3.13;;;;;;;17.96;100.00;100456.09;4927766;29;20255;-69
2023/07/16 05:41:04;;;;;;;9.03;3.03;;;;;;;18.03;100.00;100447.94;4929453;29;20254;-68
2023/07/16 05:43:31;;;;;;;7.50;3.13;;;;;;;18.03;100.00;100433.66;4926013;29;20297;-72
2023/07/16 05:45:58;;;;;;;6.10;2.80;;;;;;;18.21;100.00;100448.53;4916227;29;20210;-68
2023/07/16 05:48:24;;;;;;;7.60;3.23;;;;;;;18.35;100.00;100450.06;4931181;29;20215;-68
2023/07/16 05:50:51;;;;;;;9.50;3.20;;;;;;;18.46;100.00;100445.44;4932611;29;20729;-68
2023/07/16 05:53:17;;;;;;;6.90;2.87;;;;;;;18.64;100.00;100454.06;4931345;29;20282;-68
2023/07/16 05:55:44;;;;;;;8.47;2.83;;;;;;;18.90;100.00;100441.06;4930784;29;20640;-68
2023/07/16 05:58:10;;;;;;;7.23;3.03;;;;;;;19.19;100.00;100447.59;4932207;29;20237;-68
2023/07/16 06:00:36;;;;;;;8.40;3.10;;;;;;;19.27;100.00;100454.59;4930657;29;20294;-71
2023/07/16 06:03:03;;;;;;;6.07;2.80;;;;;;;19.26;100.00;100455.53;4919288;29;20301;-68
2023/07/16 06:05:34;;;;;;;7.30;3.40;;;;;;;19.30;100.00;100462.59;4931252;29;20735;-71
2023/07/16 06:08:00;;;;;;;6.90;3.13;;;;;;;19.26;100.00;100471.63;4925476;29;20345;-70
2023/07/16 06:10:27;;;;;;;8.37;3.10;;;;;;;19.15;100.00;100467.38;4929787;29;20206;-71
2023/07/16 06:12:54;;;;;;;10.83;3.30;;;;;;;19.03;100.00;100453.31;4932425;29;20199;-68
2023/07/16 06:15:20;;;;;;;7.33;2.83;;;;;;;19.09;100.00;100466.59;4928964;29;20735;-68
2023/07/16 06:17:46;;;;;;;6.63;2.80;;;;;;;19.16;100.00;100464.66;4930552;29;20223;-68
2023/07/16 06:20:13;;;;;;;7.30;3.10;;;;;;;19.17;100.00;100462.88;4931851;29;20213;-68
2023/07/16 06:22:39;;;;;;;5.23;2.80;;;;;;;19.44;100.00;100472.16;4928684;29;20233;-69
2023/07/16 06:25:07;;;;;;;8.83;3.27;;;;;;;19.60;100.00;100473.59;4931576;29;20230;-68
2023/07/16 06:27:33;;;;;;;6.67;3.20;;;;;;;19.79;100.00;100472.28;4930335;29;20359;-69
2023/07/16 06:29:59;;;;;;;9.73;3.93;;;;;;;19.76;98.37;100460.72;4926327;29;20290;-69
2023/07/16 06:32:26;;;;;;;11.27;3.00;;;;;;;19.80;98.12;100475.88;4915066;29;20597;-68
2023/07/16 06:34:52;;;;;;;7.93;3.07;;;;;;;19.86;97.73;100484.66;4930325;29;20234;-67
2023/07/16 06:37:19;;;;;;;9.27;3.23;;;;;;;20.12;97.62;100480.50;4929551;29;20225;-68
2023/07/16 06:39:45;;;;;;;6.20;2.90;;;;;;;20.39;94.84;100473.53;4931110;29;20207;-68
2023/07/16 06:42:12;;;;;;;7.53;2.80;;;;;;;20.53;89.88;100474.09;4926893;29;20233;-68
2023/07/16 06:44:38;;;;;;;6.10;2.75;;;;;;;20.73;86.55;100484.31;4934669;29;20206;-72
2023/07/16 06:47:04;;;;;;;8.45;3.03;;;;;;;20.74;85.61;100481.59;4931844;29;20222;-68
2023/07/16 06:49:31;;;;;;;23.30;4.55;;;;;;;20.91;85.26;100483.84;4917223;29;20199;-68
2023/07/16 06:52:00;;;;;;;6.28;3.08;;;;;;;21.04;83.80;100482.56;4934250;29;20202;-68
2023/07/16 06:54:27;;;;;;;6.68;2.47;;;;;;;21.33;82.06;100488.97;4938380;29;20213;-72
2023/07/16 06:56:53;;;;;;;7.43;2.80;;;;;;;21.27;81.06;100492.75;4930657;29;20225;-68
2023/07/16 06:59:20;;;;;;;11.25;3.40;;;;;;;21.26;80.39;100486.47;4937683;29;20648;-68
2023/07/16 07:01:46;;;;;;;5.80;2.78;;;;;;;21.23;79.05;100493.75;4929520;29;20216;-68
2023/07/16 07:04:13;;;;;;;7.95;3.13;;;;;;;21.03;78.02;100490.69;4933108;29;20286;-69
2023/07/16 07:06:39;;;;;;;5.55;2.80;;;;;;;21.32;78.33;100488.09;4933206;29;20218;-70
2023/07/16 07:09:06;;;;;;;9.15;2.60;;;;;;;21.92;74.32;100495.25;4933464;29;20583;-69
2023/07/16 07:11:33;;;;;;;7.90;2.80;;;;;;;23.05;68.46;100486.09;4935724;29;20221;-71
2023/07/16 07:13:59;;;;;;;5.82;2.90;;;;;;;24.24;61.47;100476.94;4931306;29;20282;-68
2023/07/16 07:16:26;;;;;;;6.32;2.50;;;;;;;24.08;62.44;100497.47;4936096;29;20241;-71
2023/07/16 07:18:52;;;;;;;7.05;2.85;;;;;;;23.02;65.42;100500.59;4933797;29;20230;-69
2023/07/16 07:21:18;;;;;;;7.68;2.75;;;;;;;23.39;64.07;100496.53;4936011;29;20222;-68
2023/07/16 07:23:45;;;;;;;5.95;2.90;;;;;;;24.94;58.65;100492.94;4932846;29;20199;-68
2023/07/16 07:26:11;;;;;;;6.15;2.80;;;;;;;25.27;56.99;100490.56;4930181;29;20207;-69
2023/07/16 07:28:38;;;;;;;4.60;2.40;;;;;;;24.31;58.34;100491.13;4934050;29;20234;-71
2023/07/16 07:31:04;;;;;;;5.15;2.80;;;;;;;24.43;58.57;100496.06;4926388;29;20199;-68
2023/07/16 07:33:32;;;;;;;5.95;2.40;;;;;;;23.81;59.02;100496.75;4927059;29;20206;-71
2023/07/16 07:35:58;;;;;;;5.28;2.70;;;;;;;25.17;55.82;100491.91;4930787;29;20194;-68
2023/07/16 07:38:25;;;;;;;7.97;3.08;;;;;;;25.76;53.53;100498.28;4925770;29;20218;-68
2023/07/16 07:40:51;;;;;;;6.85;2.75;;;;;;;26.69;49.83;100482.81;4924368;29;20207;-70
2023/07/16 07:43:17;;;;;;;8.85;2.53;;;;;;;26.86;49.73;100491.00;4935497;29;20614;-68
2023/07/16 07:45:44;;;;;;;5.38;2.78;;;;;;;27.29;47.42;100499.63;4936250;29;20202;-71
2023/07/16 07:48:10;;;;;;;6.88;2.58;;;;;;;27.27;46.85;100490.66;4929849;29;20218;-69
2023/07/16 07:50:37;;;;;;;3.83;2.42;;;;;;;26.85;48.31;100494.66;4929194;29;20207;-68
2023/07/16 07:53:03;;;;;;;6.25;2.50;;;;;;;26.61;48.28;100495.94;4929891;29;20195;-67
2023/07/16 07:55:30;;;;;;;5.15;2.33;;;;;;;27.35;47.32;100492.00;4936250;29;20705;-68
2023/07/16 07:57:56;;;;;;;5.35;2.35;;;;;;;26.97;46.05;100488.59;4926008;29;20215;-69
2023/07/16 08:00:22;;;;;;;6.60;2.42;;;;;;;26.48;47.52;100501.13;4927012;29;20202;-69
2023/07/16 08:02:49;;;;;;;7.18;2.70;;;;;;;26.53;47.63;100507.19;4936024;29;20284;-68
2023/07/16 08:05:16;;;;;;;7.97;2.70;;;;;;;26.88;46.66;100505.38;4939076;28;20211;-67
2023/07/16 08:07:42;;;;;;;7.18;2.53;;;;;;;26.84;45.96;100485.63;4934415;29;20230;-68
2023/07/16 08:10:09;;;;;;;3.30;2.30;;;;;;;26.98;45.11;100503.97;4933186;29;20203;-71
2023/07/16 08:12:35;;;;;;;6.70;2.80;;;;;;;26.89;44.89;100511.69;4932193;29;20584;-68
2023/07/16 08:15:03;;;;;;;6.05;2.50;;;;;;;26.63;45.07;100496.72;4935108;29;20293;-68
2023/07/16 08:17:29;;;;;;;4.32;2.50;;;;;;;26.77;44.99;100499.59;4937454;29;20670;-68
2023/07/16 08:19:56;;;;;;;7.82;2.63;;;;;;;26.78;44.86;100487.78;4934550;29;20287;-68
2023/07/16 08:22:24;;;;;;;5.38;2.40;;;;;;;26.13;45.70;100505.53;4930090;29;20715;-68
2023/07/16 08:24:51;;;;;;;7.85;2.95;;;;;;;25.88;47.27;100497.69;4930994;29;20255;-66
2023/07/16 08:27:19;;;;;;;4.60;2.67;;;;;;;25.71;48.17;100490.38;4935435;29;20230;-70
2023/07/16 08:29:45;;;;;;;5.80;2.47;;;;;;;24.87;50.05;100491.44;4942067;29;20202;-70
2023/07/16 08:32:12;;;;;;;5.28;2.35;;;;;;;24.24;51.04;100504.00;4936156;29;20199;-69
2023/07/16 08:34:38;;;;;;;6.10;2.67;;;;;;;23.77;50.89;100507.75;4932582;29;20345;-68
2023/07/16 08:37:05;;;;;;;6.88;2.60;;;;;;;23.36;51.71;100507.47;4936825;29;20253;-68
2023/07/16 08:39:31;;;;;;;3.80;2.22;;;;;;;23.24;53.00;100507.94;4935603;29;20217;-68
2023/07/16 08:41:58;;;;;;;7.40;2.50;;;;;;;23.24;53.75;100506.09;4937449;29;20314;-69
2023/07/16 08:44:24;;;;;;;10.05;3.03;;;;;;;23.32;53.31;100506.69;4936838;29;20278;-69
2023/07/16 08:46:51;;;;;;;7.10;2.75;;;;;;;23.57;52.59;100512.06;4933806;29;20668;-70
2023/07/16 08:49:19;;;;;;;5.47;2.50;;;;;;;23.38;51.28;100506.47;4939125;29;20201;-71
2023/07/16 08:51:48;;;;;;;6.18;2.53;;;;;;;23.48;51.10;100512.41;4938885;29;20247;-68
2023/07/16 08:54:16;;;;;;;5.47;2.55;;;;;;;23.55;51.81;100518.44;4936590;29;20199;-69
2023/07/16 08:56:47;;;;;;;6.25;2.88;;;;;;;23.74;50.65;100519.56;4933510;29;20255;-68
2023/07/16 08:59:17;;;;;;;6.57;2.65;;;;;;;23.59;50.52;100523.72;4936527;29;20223;-69
2023/07/16 09:01:44;;;;;;;3.47;2.13;;;;;;;23.79;51.21;100522.09;4940279;29;20309;-71
2023/07/16 09:04:10;;;;;;;8.23;2.97;;;;;;;23.94;51.07;100522.34;4941327;29;20332;-69
2023/07/16 09:06:37;;;;;;;6.38;2.88;;;;;;;24.02;50.16;100522.06;4937608;29;20203;-68
2023/07/16 09:09:03;;;;;;;5.90;2.50;;;;;;;24.13;49.46;100524.34;4931508;29;20222;-68
2023/07/16 09:11:30;;;;;;;5.93;2.47;;;;;;;24.14;49.23;100521.56;4936154;29;20311;-70
2023/07/16 09:13:56;;;;;;;3.58;2.10;;;;;;;23.98;50.20;100523.13;4936102;29;20203;-68
2023/07/16 09:16:23;;;;;;;7.80;2.80;;;;;;;23.98;49.66;100515.00;4920712;29;20234;-71
2023/07/16 09:18:49;;;;;;;4.38;2.20;;;;;;;23.85;48.44;100522.72;4929841;29;20219;-69
2023/07/16 09:21:15;;;;;;;5.10;2.60;;;;;;;23.75;48.22;100526.75;4936303;29;20203;-68
2023/07/16 09:23:42;;;;;;;5.30;2.28;;;;;;;23.68;49.25;100533.31;4934836;29;20703;-67
2023/07/16 09:26:08;;;;;;;8.02;3.08;;;;;;;23.71;47.65;100512.44;4933391;29;20609;-67
2023/07/16 09:28:35;;;;;;;4.93;2.60;;;;;;;23.93;48.13;100522.41;4942770;29;20238;-72
2023/07/16 09:31:06;;;;;;;6.63;2.83;;;;;;;24.12;48.71;100533.41;4932005;29;20199;-68
2023/07/16 09:33:33;;;;;;;5.45;2.95;;;;;;;24.10;48.59;100519.94;4931877;29;20202;-68
2023/07/16 09:36:00;;;;;;;6.90;2.67;;;;;;;24.31;47.08;100524.50;4932825;29;20230;-68
2023/07/16 09:38:27;;;;;;;3.00;2.13;;;;;;;24.40;46.97;100514.22;4941413;29;20237;-69
2023/07/16 09:40:55;;;;;;;4.97;2.88;;;;;;;24.61;46.48;100532.31;4937627;29;20206;-72
2023/07/16 09:43:21;;;;;;;6.03;3.03;;;;;;;24.54;46.06;100517.25;4937012;29;20432;-72
2023/07/16 09:45:48;;;;;;;4.78;2.30;;;;;;;24.50;46.79;100531.88;4930007;29;20207;-69
2023/07/16 09:48:15;;;;;;;4.82;2.70;;;;;;;24.80;46.18;100525.13;4940589;29;20598;-68
2023/07/16 09:50:49;;;;;;;6.13;2.88;;;;;;;24.79;46.03;100527.91;4933018;29;20209;-68
2023/07/16 09:53:18;;;;;;;5.00;2.63;;;;;;;24.81;45.84;100531.44;4931255;29;20191;-68
2023/07/16 09:55:46;;;;;;;5.05;2.70;;;;;;;24.73;45.19;100533.59;4917908;29;20294;-70
2023/07/16 09:58:13;;;;;;;3.90;2.47;;;;;;;24.62;46.40;100529.53;4933608;29;20227;-69
2023/07/16 10:00:41;;;;;;;6.00;2.90;;;;;;;24.60;46.98;100530.53;4933961;29;20206;-70
2023/07/16 10:03:08;;;;;;;6.47;2.70;;;;;;;24.93;45.56;100528.22;4930707;29;20225;-68
2023/07/16 10:05:38;;;;;;;4.80;2.67;;;;;;;25.11;45.41;100535.56;4937226;29;20223;-71
2023/07/16 10:08:04;;;;;;;6.43;2.60;;;;;;;25.36;45.13;100527.22;4928577;29;20387;-69
2023/07/16 10:10:54;;;;;;;6.68;2.58;;;;;;;25.48;45.07;100526.66;4920523;29;20199;-69
2023/07/16 10:13:23;;;;;;;6.63;2.50;;;;;;;25.67;45.40;100542.13;4932256;29;20294;-68
2023/07/16 10:15:57;;;;;;;7.10;2.85;;;;;;;25.50;43.44;100537.44;4940088;29;20310;-69
2023/07/16 10:18:30;;;;;;;6.28;2.50;;;;;;;24.95;43.49;100539.88;4925152;29;20225;-69
2023/07/16 10:21:08;;;;;;;7.47;2.42;;;;;;;24.95;44.18;100537.16;4935713;29;20389;-69
2023/07/16 10:23:43;;;;;;;6.53;2.60;;;;;;;24.92;45.01;100537.31;4931117;29;20606;-70
2023/07/16 10:26:13;;;;;;;6.13;2.63;;;;;;;24.94;45.11;100529.97;4933657;29;20199;-70
2023/07/16 10:28:46;;;;;;;7.80;3.05;;;;;;;24.95;45.54;100529.03;4925806;29;20226;-69
2023/07/16 10:31:23;;;;;;;5.88;3.00;;;;;;;25.38;43.53;100519.03;4932230;29;20209;-71
2023/07/16 10:34:00;;;;;;;5.07;2.88;;;;;;;25.50;43.42;100516.63;4928477;29;20626;-71
2023/07/16 10:36:26;;;;;;;6.05;2.65;;;;;;;25.78;42.03;100508.13;4928763;29;20212;-69
2023/07/16 10:38:53;;;;;;;6.32;3.15;;;;;;;26.15;41.60;100520.78;4940567;29;20229;-68
2023/07/16 10:41:20;;;;;;;7.18;2.50;;;;;;;26.03;41.76;100520.53;4928971;29;20195;-71
2023/07/16 10:43:47;;;;;;;5.90;2.92;;;;;;;26.40;40.86;100528.63;4930073;29;20225;-70
2023/07/16 10:46:13;;;;;;;4.80;3.13;;;;;;;26.45;40.68;100509.41;4937181;29;20683;-69
2023/07/16 10:48:46;;;;;;;7.90;3.25;;;;;;;26.82;40.51;100525.59;4941408;29;20222;-68
2023/07/16 10:51:15;;;;;;;8.40;3.25;;;;;;;26.65;40.48;100525.56;4935130;29;20210;-69
2023/07/16 10:53:45;;;;;;;5.55;2.88;;;;;;;26.03;40.72;100520.53;4925258;29;20199;-72
2023/07/16 10:56:11;;;;;;;6.22;3.00;;;;;;;25.59;42.60;100513.47;4929929;29;20311;-68
2023/07/16 10:58:38;;;;;;;6.10;3.60;;;;;;;25.79;41.67;100525.28;4933225;29;20222;-70
2023/07/16 11:01:04;;;;;;;5.80;2.88;;;;;;;26.24;41.11;100512.19;4933892;29;20294;-71
2023/07/16 11:03:31;;;;;;;5.57;3.13;;;;;;;26.62;39.18;100517.59;4936880;29;20305;-70
2023/07/16 11:05:57;;;;;;;5.00;3.03;;;;;;;26.78;39.24;100515.81;4928323;29;20269;-69
2023/07/16 11:08:24;;;;;;;7.03;2.97;;;;;;;26.78;38.91;100521.25;4922675;29;20218;-71
2023/07/16 11:10:57;;;;;;;6.45;2.75;;;;;;;26.76;39.07;100511.44;4931408;29;20648;-68
2023/07/16 11:13:34;;;;;;;6.18;2.90;;;;;;;26.64;38.51;100523.81;4944906;29;20199;-66
2023/07/16 11:16:08;;;;;;;5.55;3.05;;;;;;;26.54;38.15;100526.13;4937262;29;20195;-68
2023/07/16 11:18:35;;;;;;;4.25;2.88;;;;;;;26.45;39.08;100521.16;4931272;29;20742;-72
2023/07/16 11:21:01;;;;;;;7.00;3.17;;;;;;;26.27;39.93;100519.31;4933439;29;20199;-69